Time;durP1;ratioP1;P1;durP2;ratioP2;P2;SDS_P1;SDS_P2;PMS_P1;PMS_P2;Temp;Humidity;BMP_temperature;BMP_pressure;BME280_temperature;BME280_humidity;BME280_pressure;Samples;Min_cycle;Max_cycle;Signal;HPM_P1;HPM_P2
2022/09/09 00:01:09;;;;;;;4.35;1.50;;;15.70;99.90;;;14.92;92.11;97014.44;5010343;28;20420;-73
2022/09/09 00:03:45;;;;;;;11.40;1.80;;;15.80;99.90;;;14.92;92.83;97025.09;5009689;28;20888;-74
2022/09/09 00:06:20;;;;;;;3.58;1.83;;;15.70;99.90;;;14.92;93.10;97009.13;5010255;28;20433;-74
2022/09/09 00:09:01;;;;;;;6.60;1.70;;;15.70;99.90;;;14.92;92.20;97011.78;5010038;28;20543;-74
2022/09/09 00:11:41;;;;;;;6.82;1.80;;;15.70;99.90;;;14.89;88.96;97012.34;5010028;28;20457;-74
2022/09/09 00:14:18;;;;;;;4.00;1.65;;;15.70;99.90;;;14.85;89.58;97009.47;5009653;28;20400;-74
2022/09/09 00:16:53;;;;;;;9.50;1.92;;;15.70;99.90;;;14.83;91.54;97010.84;5009855;28;20409;-74
2022/09/09 00:19:24;;;;;;;2.85;1.42;;;15.70;99.90;;;14.80;92.20;97001.56;4992492;28;20896;-72
2022/09/09 00:22:02;;;;;;;2.65;1.50;;;15.70;99.90;;;14.83;92.40;97002.84;5010068;28;20702;-75
2022/09/09 00:24:38;;;;;;;6.90;1.70;;;15.70;99.90;;;14.86;92.74;96999.63;5009563;28;20405;-74
2022/09/09 00:27:12;;;;;;;6.57;2.10;;;15.70;99.90;;;14.87;92.43;97004.66;4995194;28;20786;-75
2022/09/09 00:29:45;;;;;;;5.32;1.70;;;15.70;99.90;;;14.86;93.17;96999.63;4995953;28;20837;-74
2022/09/09 00:32:16;;;;;;;5.68;1.77;;;15.70;99.90;;;14.87;89.01;97006.53;5013405;28;20452;-74
2022/09/09 00:34:49;;;;;;;7.00;1.75;;;15.70;99.90;;;14.83;91.06;97006.31;5013060;28;20405;-74
2022/09/09 00:37:16;;;;;;;5.85;2.08;;;15.70;99.90;;;14.87;90.32;97001.19;5013213;28;20396;-73
2022/09/09 00:39:47;;;;;;;7.15;1.75;;;15.70;99.90;;;14.89;91.84;96993.69;5013274;28;20405;-72
2022/09/09 00:42:17;;;;;;;4.28;1.58;;;15.70;99.90;;;14.92;93.38;96998.47;5013210;28;20397;-73
2022/09/09 00:44:58;;;;;;;4.82;1.90;;;15.70;99.90;;;14.96;94.59;96984.25;5012804;28;20416;-72
2022/09/09 00:47:43;;;;;;;6.40;1.75;;;15.80;99.90;;;15.01;88.92;96994.06;5013071;28;20496;-73
2022/09/09 00:50:45;;;;;;;6.03;2.05;;;15.80;99.90;;;15.01;90.70;96994.06;5012993;28;20408;-73
2022/09/09 00:53:28;;;;;;;6.05;1.90;;;15.80;99.90;;;15.04;89.61;96996.13;5012293;28;20428;-72
2022/09/09 00:56:05;;;;;;;7.32;1.90;;;15.80;99.90;;;15.06;90.67;97007.31;5012921;28;20504;-73
2022/09/09 00:58:31;;;;;;;6.80;2.10;;;15.90;99.90;;;15.07;85.81;96991.03;5012849;28;20405;-73
2022/09/09 01:01:06;;;;;;;10.52;1.90;;;15.90;99.90;;;15.08;82.37;96999.84;5012895;28;20412;-73
2022/09/09 01:03:37;;;;;;;3.60;1.50;;;15.90;99.90;;;15.13;84.14;96998.94;5012459;28;20441;-73
2022/09/09 01:06:15;;;;;;;6.50;1.70;;;15.90;99.90;;;15.16;84.32;96998.38;5012808;28;20407;-73
2022/09/09 01:09:05;;;;;;;4.45;1.55;;;15.90;99.90;;;15.23;87.23;96991.59;5012629;28;20890;-73
2022/09/09 01:11:42;;;;;;;4.13;1.70;;;16.00;99.90;;;15.23;81.05;96991.59;5012597;28;20906;-73
2022/09/09 01:14:20;;;;;;;3.50;1.30;;;16.00;99.90;;;15.26;81.03;96990.25;5012205;28;20466;-73
2022/09/09 01:16:47;;;;;;;4.75;1.42;;;16.00;99.90;;;15.31;84.36;96985.63;5012661;28;20404;-73
2022/09/09 01:19:26;;;;;;;9.07;1.63;;;16.00;99.90;;;15.33;85.71;96988.00;5012577;28;20409;-74
2022/09/09 01:22:03;;;;;;;4.77;1.60;;;16.10;99.90;;;15.38;87.90;96998.56;5012539;28;20463;-73
2022/09/09 01:24:39;;;;;;;4.20;1.48;;;16.10;99.90;;;15.40;86.85;96999.88;5012083;28;20405;-73
2022/09/09 01:27:07;;;;;;;4.00;1.60;;;16.10;99.90;;;15.38;87.04;97002.03;5012437;28;20952;-72
2022/09/09 01:29:33;;;;;;;5.45;1.50;;;16.10;99.90;;;15.34;81.64;97009.03;5012379;28;20471;-73
2022/09/09 01:32:02;;;;;;;2.63;1.40;;;16.10;99.90;;;15.34;85.71;97008.22;5012380;28;20953;-73
2022/09/09 01:34:35;;;;;;;7.07;1.83;;;16.10;99.90;;;15.31;85.64;97014.94;5011724;28;20409;-73
2022/09/09 01:37:05;;;;;;;5.22;1.60;;;16.10;99.90;;;15.35;84.61;97012.47;5011674;28;20833;-72
2022/09/09 01:39:32;;;;;;;3.88;1.40;;;16.10;99.90;;;15.34;86.47;97011.69;5012022;28;20393;-72
2022/09/09 01:41:59;;;;;;;7.13;1.75;;;16.10;99.90;;;15.36;86.20;97004.19;5012181;28;20934;-73
2022/09/09 01:44:29;;;;;;;6.25;1.58;;;16.10;99.90;;;15.36;84.28;96998.88;5011595;28;20408;-73
2022/09/09 01:46:55;;;;;;;4.90;1.40;;;16.10;99.90;;;15.34;85.37;97006.34;5012046;28;20397;-72
2022/09/09 01:49:21;;;;;;;5.15;1.60;;;16.10;99.90;;;15.30;83.99;97012.56;5012031;28;20401;-73
2022/09/09 01:51:52;;;;;;;6.05;1.70;;;16.10;99.90;;;15.28;87.84;97010.19;5011954;28;20542;-73
2022/09/09 01:54:20;;;;;;;6.57;1.50;;;16.00;99.90;;;15.24;88.29;97009.19;5011452;28;20494;-73
2022/09/09 01:57:00;;;;;;;7.50;1.70;;;16.00;99.90;;;15.24;86.75;97013.72;5011854;28;20401;-73
2022/09/09 01:59:48;;;;;;;5.28;1.67;;;16.00;99.90;;;15.17;84.67;96998.09;5011864;28;20400;-72
2022/09/09 02:02:19;;;;;;;8.13;1.70;;;16.00;99.90;;;15.13;87.53;96994.41;5011724;28;20397;-72
2022/09/09 02:04:48;;;;;;;7.05;1.85;;;15.90;99.90;;;15.09;83.73;96988.09;5011240;28;20450;-72
2022/09/09 02:07:30;;;;;;;5.85;1.52;;;15.90;99.90;;;15.01;85.85;96988.75;5022161;23;20401;-73
2022/09/09 02:10:05;;;;;;;7.38;2.00;;;15.80;99.90;;;14.99;87.36;96998.88;4991606;28;20406;-73
2022/09/09 02:12:31;;;;;;;3.08;1.50;;;15.80;99.90;;;14.97;88.56;97003.72;4990290;28;20498;-73
2022/09/09 02:15:05;;;;;;;4.90;1.90;;;15.80;99.90;;;14.91;88.13;97005.66;4991565;28;20414;-73
2022/09/09 02:17:36;;;;;;;8.23;2.03;;;15.80;99.90;;;14.91;86.93;97010.19;4996819;28;20405;-73
2022/09/09 02:20:08;;;;;;;4.20;1.52;;;15.70;99.90;;;14.83;85.29;97016.16;5011439;28;20409;-73
2022/09/09 02:22:37;;;;;;;3.70;1.45;;;15.70;99.90;;;14.82;86.97;97002.03;5011219;28;20400;-74
2022/09/09 02:25:06;;;;;;;5.43;1.47;;;15.70;99.90;;;14.80;84.64;97003.44;5011171;28;20534;-71
2022/09/09 02:27:32;;;;;;;5.30;1.70;;;15.60;99.90;;;14.73;84.97;97001.13;5011260;28;20423;-73
2022/09/09 02:30:02;;;;;;;5.00;1.73;;;15.60;99.90;;;14.71;87.88;97006.72;4993645;28;20416;-73
2022/09/09 02:32:30;;;;;;;8.63;2.00;;;15.50;99.90;;;14.68;88.25;97025.94;5010424;28;20914;-73
2022/09/09 02:35:02;;;;;;;5.03;1.63;;;15.50;99.90;;;14.61;86.70;97022.03;5010385;28;20429;-73
2022/09/09 02:37:35;;;;;;;6.20;1.73;;;15.50;99.90;;;14.56;88.26;97019.44;5010681;28;20412;-73
2022/09/09 02:40:01;;;;;;;3.00;1.42;;;15.40;99.90;;;14.51;90.72;97012.28;5010884;28;20479;-73
2022/09/09 02:42:27;;;;;;;6.35;2.10;;;15.40;99.90;;;14.46;91.65;97014.22;5010988;28;20678;-73
2022/09/09 02:44:53;;;;;;;8.43;1.90;;;15.30;99.90;;;14.41;92.23;97009.78;5010750;28;20491;-73
2022/09/09 02:47:39;;;;;;;7.87;1.90;;;15.30;99.90;;;14.38;92.09;97009.50;5010904;28;20448;-73
2022/09/09 02:50:13;;;;;;;10.20;3.55;;;15.30;99.90;;;14.33;93.04;97010.38;5010902;28;20402;-73
2022/09/09 02:52:54;;;;;;;3.10;1.70;;;15.20;99.90;;;14.30;93.52;97008.25;5010877;28;20522;-72
2022/09/09 02:55:29;;;;;;;4.90;1.75;;;15.20;99.90;;;14.27;93.72;96998.19;5010889;28;20416;-73
2022/09/09 02:57:56;;;;;;;4.18;1.70;;;15.20;99.90;;;14.24;92.89;96998.75;5010716;28;20393;-72
2022/09/09 03:00:24;;;;;;;4.50;1.50;;;15.10;99.90;;;14.19;94.03;96994.28;4992986;28;20417;-72
2022/09/09 03:02:53;;;;;;;5.85;1.52;;;15.10;99.90;;;14.18;92.88;96995.34;5010169;28;20404;-72
2022/09/09 03:05:19;;;;;;;3.90;1.92;;;15.10;99.90;;;14.17;94.58;96991.09;5010678;28;20413;-72
2022/09/09 03:07:45;;;;;;;4.77;1.80;;;15.10;99.90;;;14.11;94.80;96986.91;5010544;28;20466;-72
2022/09/09 03:10:11;;;;;;;4.82;1.90;;;15.00;99.90;;;14.11;95.36;96991.44;5010725;28;20417;-73
2022/09/09 03:12:37;;;;;;;5.03;1.67;;;15.00;99.90;;;14.07;95.43;96988.53;5010487;28;20444;-73
2022/09/09 03:15:03;;;;;;;3.63;1.45;;;15.00;99.90;;;14.05;93.39;96993.38;5010364;28;20431;-72
2022/09/09 03:17:29;;;;;;;5.53;1.75;;;14.90;99.90;;;14.04;94.86;96989.13;5010485;28;20401;-72
2022/09/09 03:19:58;;;;;;;7.72;2.03;;;15.00;99.90;;;14.05;95.32;96989.94;5010683;28;20462;-72
2022/09/09 03:22:25;;;;;;;2.67;1.27;;;14.90;99.90;;;14.06;95.66;96984.28;5010464;28;20405;-73
2022/09/09 03:24:51;;;;;;;5.90;1.75;;;15.00;99.90;;;14.08;95.56;96990.13;5010192;28;20409;-73
2022/09/09 03:27:17;;;;;;;3.20;1.30;;;15.00;99.90;;;14.08;96.12;96987.47;5010444;28;20470;-73
2022/09/09 03:29:43;;;;;;;3.65;1.50;;;14.90;99.90;;;14.10;96.21;97001.31;5010519;28;20401;-73
2022/09/09 03:32:10;;;;;;;3.67;1.73;;;15.00;99.90;;;14.09;95.17;96993.59;5010588;28;20420;-73
2022/09/09 03:34:38;;;;;;;4.90;1.55;;;14.90;99.90;;;14.11;94.75;96989.59;5009954;28;20459;-73
2022/09/09 03:37:06;;;;;;;4.03;1.58;;;15.00;99.90;;;14.14;95.86;96993.53;5010409;28;20413;-73
2022/09/09 03:39:32;;;;;;;7.00;1.70;;;15.00;99.90;;;14.15;96.01;96995.91;5010376;28;20411;-74
2022/09/09 03:41:58;;;;;;;4.65;1.30;;;15.00;99.90;;;14.16;95.84;97005.50;5010379;28;20879;-74
2022/09/09 03:44:24;;;;;;;10.75;1.85;;;15.00;99.90;;;14.17;90.62;96999.09;5009898;28;20408;-73
2022/09/09 03:46:50;;;;;;;4.40;1.50;;;15.00;99.90;;;14.13;87.60;96998.09;5010354;28;20405;-73
2022/09/09 03:49:16;;;;;;;4.43;1.55;;;14.90;99.90;;;14.13;91.07;96998.09;5010262;28;20459;-73
2022/09/09 03:51:42;;;;;;;4.38;1.60;;;14.90;99.90;;;14.13;92.34;96997.28;5010304;28;20927;-73
2022/09/09 03:54:10;;;;;;;3.90;1.70;;;14.90;99.90;;;14.12;89.74;97001.03;5009863;28;20412;-73
2022/09/09 03:56:36;;;;;;;3.58;1.30;;;14.90;99.90;;;14.10;92.67;96989.84;5010260;28;20404;-73
2022/09/09 03:59:02;;;;;;;3.73;1.40;;;14.90;99.90;;;14.10;93.61;97000.50;5010230;28;20479;-73
2022/09/09 04:01:29;;;;;;;3.15;1.67;;;14.90;99.90;;;14.12;93.89;96996.50;5012137;28;20397;-74
2022/09/09 04:03:57;;;;;;;4.17;1.40;;;14.90;99.90;;;14.12;94.18;97001.81;5013429;28;20458;-73
2022/09/09 04:06:24;;;;;;;2.30;1.48;;;15.00;99.90;;;14.12;92.74;96996.50;4996272;28;20806;-73
2022/09/09 04:08:52;;;;;;;5.68;1.50;;;15.00;99.90;;;14.21;94.53;96996.63;5013703;28;20444;-73
2022/09/09 04:11:19;;;;;;;4.90;1.48;;;15.00;99.90;;;14.20;93.73;96993.22;5013735;28;20508;-73
2022/09/09 04:13:45;;;;;;;4.90;1.70;;;15.00;99.90;;;14.23;94.73;96997.97;5013336;28;20920;-73
2022/09/09 04:16:13;;;;;;;6.07;1.73;;;15.00;99.90;;;14.25;94.92;96987.03;5013698;28;20405;-72
2022/09/09 04:18:39;;;;;;;2.88;1.30;;;15.10;99.90;;;14.27;94.53;97004.31;5013615;28;20396;-73
2022/09/09 04:21:06;;;;;;;3.77;1.20;;;15.10;99.90;;;14.27;94.87;97001.66;5013785;28;20491;-73
2022/09/09 04:23:34;;;;;;;2.40;1.35;;;15.10;99.90;;;14.28;95.74;97000.56;5013112;28;20504;-73
2022/09/09 04:26:01;;;;;;;3.72;1.30;;;15.10;99.90;;;14.30;94.07;97006.38;5013698;28;20405;-73
2022/09/09 04:28:31;;;;;;;5.63;1.40;;;15.10;99.90;;;14.32;94.73;97001.59;5013452;28;20455;-72
2022/09/09 04:31:03;;;;;;;3.72;1.60;;;15.10;99.90;;;14.37;95.68;97010.56;5013294;28;20515;-73
2022/09/09 04:33:31;;;;;;;2.65;1.33;;;15.20;99.90;;;14.40;95.56;97012.72;5013171;28;20436;-73
2022/09/09 04:35:57;;;;;;;4.07;1.50;;;15.20;99.90;;;14.42;94.84;97013.22;5013505;28;20409;-73
2022/09/09 04:38:23;;;;;;;7.55;1.30;;;15.30;99.90;;;14.42;94.87;97006.03;5013296;28;20488;-72
2022/09/09 04:40:51;;;;;;;4.47;1.63;;;15.20;99.90;;;14.41;94.94;97006.31;5013321;28;20405;-72
2022/09/09 04:43:18;;;;;;;3.90;1.50;;;15.30;99.90;;;14.40;94.54;97010.06;5012812;28;20763;-73
2022/09/09 04:45:48;;;;;;;2.92;1.30;;;15.20;99.90;;;14.36;94.93;97009.78;5013144;28;20401;-73
2022/09/09 04:48:15;;;;;;;2.60;1.35;;;15.20;99.90;;;14.36;96.38;97009.78;5012986;28;20404;-73
2022/09/09 04:50:41;;;;;;;4.05;1.33;;;15.20;99.90;;;14.32;95.01;97008.78;5012956;28;20522;-73
2022/09/09 04:53:07;;;;;;;3.47;1.52;;;15.20;99.90;;;14.28;96.08;97024.50;5012576;28;20917;-73
2022/09/09 04:55:37;;;;;;;3.63;1.45;;;15.10;99.90;;;14.27;96.27;97017.63;5013076;28;20901;-73
2022/09/09 04:58:04;;;;;;;4.82;1.60;;;15.10;99.90;;;14.24;97.04;97012.84;5012884;28;20405;-73
2022/09/09 05:00:30;;;;;;;2.97;1.50;;;15.10;99.90;;;14.17;97.16;97009.75;5012927;28;20405;-73
2022/09/09 05:02:57;;;;;;;2.40;1.40;;;15.10;99.90;;;14.20;97.40;97021.69;5011898;28;20419;-73
2022/09/09 05:05:25;;;;;;;3.65;1.60;;;15.00;99.90;;;14.16;97.61;97028.66;5012035;28;22518;-69
2022/09/09 05:07:51;;;;;;;3.13;1.40;;;15.00;99.90;;;14.13;96.97;97024.69;5012680;28;20525;-69
2022/09/09 05:10:17;;;;;;;4.20;1.30;;;15.00;99.90;;;14.11;96.03;97024.19;5012769;28;20440;-70
2022/09/09 05:12:52;;;;;;;3.58;1.40;;;14.90;99.90;;;14.11;97.64;97034.81;5011015;28;20421;-70
2022/09/09 05:15:18;;;;;;;3.90;1.38;;;14.90;99.90;;;14.11;97.74;97034.03;5012566;28;20479;-70
2022/09/09 05:17:44;;;;;;;3.85;1.55;;;15.00;99.90;;;14.13;98.14;97027.38;5012052;28;20481;-72
2022/09/09 05:20:12;;;;;;;4.63;1.60;;;15.00;99.90;;;14.16;98.42;97020.66;5012059;28;20870;-72
2022/09/09 05:22:38;;;;;;;5.70;1.80;;;15.00;99.90;;;14.22;96.88;97030.19;5012087;28;20408;-72
2022/09/09 05:25:04;;;;;;;3.07;1.47;;;15.00;99.90;;;14.22;96.67;97025.66;5011985;28;20408;-70
2022/09/09 05:27:31;;;;;;;4.10;1.67;;;15.00;99.90;;;14.27;97.51;97033.59;5012140;28;20823;-71
2022/09/09 05:29:57;;;;;;;6.32;1.60;;;15.10;99.90;;;14.31;97.24;97039.94;5012329;28;20428;-70
2022/09/09 05:32:24;;;;;;;5.50;1.48;;;15.10;99.90;;;14.32;93.55;97028.22;5003375;28;20505;-70
2022/09/09 05:34:50;;;;;;;7.55;1.60;;;15.10;99.90;;;14.45;92.92;97040.06;5011566;28;20813;-71
2022/09/09 05:37:18;;;;;;;4.50;1.67;;;15.20;99.90;;;14.52;93.13;97043.19;5012002;28;20405;-71
2022/09/09 05:39:44;;;;;;;10.48;1.92;;;15.30;99.90;;;14.54;88.31;97040.25;5012144;28;20405;-71
2022/09/09 05:42:10;;;;;;;6.57;1.50;;;15.30;99.90;;;14.68;89.18;97047.25;5012104;28;20401;-71
2022/09/09 05:44:37;;;;;;;3.53;1.60;;;15.40;99.90;;;14.67;89.37;97039.53;5011519;28;20401;-71
2022/09/09 05:47:03;;;;;;;4.60;1.30;;;15.40;99.90;;;14.69;90.22;97046.19;4994468;28;20444;-71
2022/09/09 05:49:29;;;;;;;5.75;1.63;;;15.50;99.90;;;14.73;89.45;97045.63;5008929;28;20443;-69
2022/09/09 05:51:55;;;;;;;4.63;1.50;;;15.50;99.90;;;14.73;86.35;97042.97;5006410;28;20914;-71
2022/09/09 05:54:22;;;;;;;4.85;2.00;;;15.50;99.90;;;14.78;88.91;97042.88;5011357;28;20437;-71
2022/09/09 05:56:50;;;;;;;5.32;1.50;;;15.50;99.90;;;14.82;88.69;97047.34;5011833;28;20409;-73
2022/09/09 05:59:16;;;;;;;3.03;1.30;;;15.60;99.90;;;14.94;89.49;97050.41;5009282;28;21073;-70
2022/09/09 06:01:42;;;;;;;6.00;1.55;;;15.70;99.90;;;14.91;85.84;97050.16;4995769;28;20415;-71
2022/09/09 06:04:08;;;;;;;6.38;1.50;;;15.70;99.90;;;14.92;83.94;97051.75;4995528;28;21147;-71
2022/09/09 06:06:39;;;;;;;3.95;1.42;;;15.70;99.90;;;14.89;80.08;97049.66;4991947;28;20922;-71
2022/09/09 06:09:09;;;;;;;4.40;1.45;;;15.60;99.90;;;14.94;83.66;97049.59;4991890;28;20410;-71
2022/09/09 06:11:39;;;;;;;4.00;1.50;;;15.70;99.90;;;14.92;80.20;97055.22;5004439;28;20790;-70
2022/09/09 06:14:06;;;;;;;4.47;1.20;;;15.70;99.90;;;15.04;84.01;97049.47;5011041;28;20412;-71
2022/09/09 06:16:33;;;;;;;3.70;1.30;;;15.70;99.90;;;15.15;85.88;97047.44;5011490;28;20463;-71
2022/09/09 06:18:59;;;;;;;3.70;1.48;;;15.90;99.90;;;15.21;85.67;97049.75;5011428;28;20921;-70
2022/09/09 06:21:28;;;;;;;5.35;1.50;;;15.90;99.90;;;15.32;84.16;97059.22;5011406;28;20483;-70
2022/09/09 06:23:54;;;;;;;6.20;1.50;;;16.10;99.90;;;15.26;80.23;97056.91;5010651;28;21129;-70
2022/09/09 06:26:22;;;;;;;7.25;1.80;;;16.00;99.90;;;15.30;82.29;97055.25;5006574;28;20440;-70
2022/09/09 06:28:52;;;;;;;3.42;1.50;;;16.00;99.90;;;15.34;85.54;97046.34;5004284;28;20766;-71
2022/09/09 06:31:21;;;;;;;3.88;1.60;;;16.10;99.90;;;15.46;84.61;97051.25;4996908;28;20438;-70
2022/09/09 06:33:49;;;;;;;4.83;1.60;;;16.20;99.90;;;15.43;83.84;97057.97;5009719;28;20409;-72
2022/09/09 06:36:18;;;;;;;4.63;1.53;;;16.20;99.90;;;15.41;83.47;97054.78;5011150;28;20401;-72
2022/09/09 06:38:44;;;;;;;5.07;1.60;;;16.20;99.90;;;15.49;83.98;97053.34;5010470;28;20744;-72
2022/09/09 06:41:12;;;;;;;5.65;1.60;;;16.20;99.90;;;15.46;83.41;97051.25;5004771;28;20413;-71
2022/09/09 06:43:39;;;;;;;4.37;1.60;;;16.20;99.90;;;15.59;84.63;97052.44;4990847;28;20820;-71
2022/09/09 06:46:10;;;;;;;5.93;1.35;;;16.20;99.90;;;15.66;84.38;97052.84;4992446;28;20425;-72
2022/09/09 06:48:38;;;;;;;7.03;1.70;;;16.40;99.90;;;15.66;82.81;97055.50;4991215;28;20903;-71
2022/09/09 06:51:06;;;;;;;3.45;1.30;;;16.40;99.90;;;15.69;83.25;97054.94;4991281;28;20457;-72
2022/09/09 06:53:33;;;;;;;4.00;1.40;;;16.40;99.90;;;15.70;84.15;97054.66;4990707;28;20405;-70
2022/09/09 06:56:01;;;;;;;4.20;1.55;;;16.40;99.90;;;15.82;85.59;97062.19;4992027;28;20403;-72
2022/09/09 06:58:26;;;;;;;6.55;1.58;;;16.50;99.90;;;15.83;83.63;97055.78;5006271;28;20507;-71
2022/09/09 07:00:52;;;;;;;4.10;1.63;;;16.50;99.90;;;15.89;83.38;97059.94;5010721;28;20507;-71
2022/09/09 07:03:20;;;;;;;5.10;1.80;;;16.60;99.90;;;15.88;83.26;97053.81;5010309;28;20401;-71
2022/09/09 07:05:55;;;;;;;6.53;1.33;;;16.60;99.90;;;15.94;84.88;97061.75;5008495;28;20429;-73
2022/09/09 07:08:22;;;;;;;6.97;1.63;;;16.60;99.90;;;15.91;81.32;97057.78;5010416;28;20404;-67
2022/09/09 07:10:47;;;;;;;6.30;1.45;;;16.60;99.90;;;15.86;80.33;97057.88;5010673;28;20407;-70
2022/09/09 07:13:15;;;;;;;4.57;1.50;;;16.60;99.90;;;15.89;82.47;97062.59;5004297;28;20896;-70
2022/09/09 07:15:41;;;;;;;5.25;1.63;;;16.60;99.90;;;15.83;79.86;97058.44;4994185;28;20410;-70
2022/09/09 07:18:09;;;;;;;4.28;1.60;;;16.50;99.90;;;15.95;83.65;97065.97;5007652;28;20428;-73
2022/09/09 07:20:37;;;;;;;4.57;1.50;;;16.60;99.90;;;16.01;84.50;97062.94;5010547;28;20416;-72
2022/09/09 07:23:02;;;;;;;4.55;1.77;;;16.70;99.90;;;16.15;82.43;97052.28;4992444;28;20810;-72
2022/09/09 07:25:29;;;;;;;4.50;1.55;;;16.80;99.90;;;16.17;83.91;97056.22;5010580;28;20412;-72
2022/09/09 07:27:56;;;;;;;8.50;1.80;;;16.90;99.90;;;16.27;83.76;97057.94;5010408;28;20411;-71
2022/09/09 07:30:22;;;;;;;3.60;1.45;;;16.90;99.90;;;16.36;82.22;97058.84;5007276;28;20421;-70
2022/09/09 07:32:50;;;;;;;5.05;1.70;;;17.00;99.90;;;16.45;80.92;97064.28;5009690;28;20427;-71
2022/09/09 07:35:16;;;;;;;4.13;1.40;;;17.10;99.90;;;16.69;80.37;97056.13;5010356;28;20528;-72
2022/09/09 07:37:45;;;;;;;4.80;1.40;;;17.20;99.90;;;16.63;80.56;97050.06;5014119;28;20408;-72
2022/09/09 07:40:11;;;;;;;3.47;1.30;;;17.30;99.90;;;16.83;81.81;97054.22;5014482;28;20404;-72
2022/09/09 07:42:37;;;;;;;5.38;1.55;;;17.40;99.90;;;16.92;80.01;97052.41;5014016;28;20851;-71
2022/09/09 07:45:03;;;;;;;6.57;1.33;;;17.60;99.90;;;16.88;79.97;97054.09;5010517;28;20420;-71
2022/09/09 07:47:30;;;;;;;5.65;1.55;;;17.60;99.90;;;16.81;81.65;97064.41;5014066;28;20420;-71
2022/09/09 07:49:56;;;;;;;2.42;1.35;;;17.50;99.90;;;16.78;83.31;97068.47;5013946;28;20483;-72
2022/09/09 07:52:22;;;;;;;3.17;1.20;;;17.50;99.90;;;16.88;83.26;97062.13;5013901;28;20931;-71
2022/09/09 07:54:49;;;;;;;3.58;1.20;;;17.50;99.90;;;16.92;82.15;97057.75;5013404;28;20408;-72
2022/09/09 07:57:16;;;;;;;6.38;1.50;;;17.60;99.90;;;16.95;83.02;97046.47;5013812;28;20404;-71
2022/09/09 07:59:42;;;;;;;6.35;1.80;;;17.60;99.90;;;17.21;78.88;97060.09;5012430;28;20418;-71
2022/09/09 08:02:09;;;;;;;4.95;1.27;;;17.80;99.90;;;17.19;77.45;97054.25;5012324;28;20436;-71
2022/09/09 08:04:35;;;;;;;3.80;1.42;;;17.90;99.90;;;17.28;80.35;97071.19;5013362;28;20474;-70
2022/09/09 08:07:02;;;;;;;4.68;1.40;;;17.90;99.90;;;17.46;79.17;97072.88;5013805;28;20899;-72
2022/09/09 08:09:29;;;;;;;6.18;1.48;;;18.00;99.90;;;17.59;75.53;97068.59;5009447;23;20780;-73
2022/09/09 08:11:58;;;;;;;7.65;1.50;;;18.20;99.90;;;17.59;73.52;97073.94;4992427;28;20422;-72
2022/09/09 08:14:24;;;;;;;5.50;1.75;;;18.20;99.90;;;17.58;71.16;97075.03;4992970;28;20419;-75
2022/09/09 08:16:50;;;;;;;8.95;1.70;;;18.30;99.90;;;17.55;70.71;97072.97;4994102;28;20461;-74
2022/09/09 08:19:17;;;;;;;5.50;1.70;;;18.30;99.90;;;17.58;71.44;97073.16;5005552;28;20428;-72
2022/09/09 08:21:44;;;;;;;8.43;1.50;;;18.30;99.90;;;17.65;74.77;97072.75;5009180;28;20415;-73
2022/09/09 08:24:12;;;;;;;4.10;1.20;;;18.30;99.90;;;17.80;76.08;97083.09;5004455;28;20402;-73
2022/09/09 08:26:41;;;;;;;6.25;1.95;;;18.40;99.90;;;17.83;71.66;97095.88;5002313;28;20403;-73
2022/09/09 08:29:11;;;;;;;4.70;1.27;;;18.50;99.90;;;17.97;75.07;97090.44;5004156;28;20499;-73
2022/09/09 08:31:40;;;;;;;6.27;1.70;;;18.60;99.90;;;18.05;75.14;97093.19;5003190;28;20426;-72
2022/09/09 08:34:07;;;;;;;8.30;1.50;;;18.60;99.90;;;18.17;72.54;97089.97;4993347;28;20481;-73
2022/09/09 08:36:38;;;;;;;4.97;1.17;;;18.80;99.90;;;18.24;70.77;97079.59;4994088;28;20418;-73
2022/09/09 08:39:06;;;;;;;6.85;1.30;;;18.90;99.90;;;18.19;69.57;97074.38;4994736;28;20417;-73
2022/09/09 08:42:28;;;;;;;11.07;1.70;;;18.80;99.90;;;18.54;69.79;97078.00;5010613;28;20846;-73
2022/09/09 08:45:23;;;;;;;4.82;1.40;;;19.00;99.90;;;18.44;71.48;97080.94;5009643;28;20771;-72
2022/09/09 08:48:07;;;;;;;5.85;1.52;;;19.10;99.90;;;18.31;68.52;97084.50;5005271;28;20389;-73
2022/09/09 08:50:38;;;;;;;7.38;1.60;;;19.00;98.50;;;18.41;69.80;97087.72;5011429;28;20444;-73
2022/09/09 08:53:16;;;;;;;5.00;1.40;;;19.00;99.90;;;18.57;72.47;97084.66;5010811;28;20449;-73
2022/09/09 08:55:48;;;;;;;9.07;1.90;;;19.20;99.90;;;18.54;66.51;97078.00;4992815;28;20433;-74
2022/09/09 08:58:18;;;;;;;6.85;1.60;;;19.20;96.30;;;18.67;65.64;97092.41;5010963;28;20417;-73
2022/09/09 09:01:02;;;;;;;4.75;1.38;;;19.30;94.50;;;18.86;66.71;97079.56;4989904;28;20411;-72
2022/09/09 09:03:39;;;;;;;6.00;1.30;;;19.50;96.30;;;18.86;62.50;97079.56;4996791;28;20433;-73
2022/09/09 09:06:19;;;;;;;3.42;1.10;;;19.60;92.10;;;19.05;67.51;97093.50;4993283;28;20410;-72
2022/09/09 09:08:53;;;;;;;2.58;1.00;;;19.60;96.20;;;19.15;66.95;97095.88;4993043;28;20422;-74
2022/09/09 09:11:19;;;;;;;3.78;1.25;;;19.60;96.30;;;19.12;65.72;97093.03;4997203;28;20413;-73
2022/09/09 09:13:53;;;;;;;8.52;1.65;;;19.60;94.60;;;19.02;66.28;97087.97;5007134;28;20417;-74
2022/09/09 09:16:31;;;;;;;5.87;1.73;;;19.50;94.60;;;18.81;67.80;97091.22;5011478;28;20586;-73
2022/09/09 09:18:58;;;;;;;9.13;1.80;;;19.40;95.60;;;18.57;70.51;97085.44;5012108;28;20504;-73
2022/09/09 09:21:36;;;;;;;5.53;1.50;;;19.20;98.50;;;18.39;70.45;97092.59;5012223;28;20463;-73
2022/09/09 09:24:07;;;;;;;6.88;1.33;;;19.00;98.40;;;18.29;71.29;97098.22;5011094;28;20417;-74
2022/09/09 09:26:35;;;;;;;8.23;1.35;;;18.90;99.60;;;18.01;70.92;97102.16;5012096;28;20515;-74
2022/09/09 09:29:09;;;;;;;5.68;1.70;;;18.70;98.90;;;17.90;73.25;97095.44;4999093;28;20406;-73
2022/09/09 09:31:37;;;;;;;4.15;1.20;;;18.60;99.90;;;17.71;76.13;97104.47;5009746;28;20416;-73
2022/09/09 09:34:03;;;;;;;7.20;1.40;;;18.40;99.90;;;17.44;70.41;97101.84;4992220;28;20414;-72
2022/09/09 09:36:38;;;;;;;5.47;1.30;;;18.20;99.70;;;17.38;74.21;97111.06;4992774;28;20442;-73
2022/09/09 09:39:05;;;;;;;5.90;1.60;;;18.10;99.90;;;17.28;73.45;97103.28;4986577;28;20820;-73
2022/09/09 09:41:35;;;;;;;4.50;1.10;;;18.00;99.90;;;17.23;73.35;97098.00;5011522;28;20409;-73
2022/09/09 09:44:02;;;;;;;4.13;1.48;;;17.90;99.90;;;17.31;74.84;97090.06;4993116;28;20503;-74
2022/09/09 09:46:28;;;;;;;4.18;1.08;;;17.90;99.90;;;17.60;71.89;97092.38;4975916;28;20411;-74
2022/09/09 09:49:00;;;;;;;3.00;1.02;;;18.10;99.90;;;17.62;72.29;97090.22;4992277;28;20468;-75
2022/09/09 09:51:28;;;;;;;2.70;1.10;;;18.30;99.90;;;17.70;69.17;97083.34;4992347;28;20418;-73
2022/09/09 09:53:54;;;;;;;3.67;0.90;;;18.40;98.60;;;17.87;67.34;97071.97;5009416;28;20508;-73
2022/09/09 09:56:32;;;;;;;2.93;1.00;;;18.50;96.90;;;18.09;69.54;97075.41;5007162;28;20497;-75
2022/09/09 09:58:58;;;;;;;6.65;1.25;;;18.70;99.20;;;18.11;63.79;97059.84;4992591;28;20411;-74
2022/09/09 10:01:27;;;;;;;6.22;1.20;;;18.80;92.30;;;18.29;64.75;97057.22;4993230;28;20430;-77
2022/09/09 10:03:57;;;;;;;1.67;1.10;;;19.00;93.30;;;18.48;63.91;97049.75;4993641;28;20418;-74
2022/09/09 10:06:33;;;;;;;5.68;1.30;;;19.10;92.40;;;19.04;67.27;97064.28;4993695;28;20462;-77
2022/09/09 10:09:01;;;;;;;4.00;1.10;;;19.60;96.40;;;19.32;61.21;97058.31;5010986;28;20416;-77
2022/09/09 10:11:44;;;;;;;5.28;1.60;;;20.00;89.10;;;19.50;60.85;97045.72;4996962;28;20423;-76
2022/09/09 10:14:20;;;;;;;3.97;1.10;;;20.30;89.40;;;19.94;65.32;97036.50;5006595;28;20415;-74
2022/09/09 10:17:05;;;;;;;3.13;1.10;;;20.60;93.00;;;20.17;58.82;97038.97;5011252;28;20405;-74
2022/09/09 10:19:34;;;;;;;6.05;1.27;;;20.80;85.40;;;20.54;57.85;97042.81;4994286;28;20930;-75
2022/09/09 10:22:25;;;;;;;6.38;1.33;;;21.00;83.60;;;20.46;55.84;97029.09;4996974;28;20906;-73
2022/09/09 10:25:26;;;;;;;7.97;1.60;;;21.10;80.10;;;20.48;54.40;97036.84;5010203;28;20768;-77
2022/09/09 10:28:27;;;;;;;5.25;1.35;;;21.10;76.40;;;20.45;58.40;97037.47;4995357;28;20421;-75
2022/09/09 10:31:08;;;;;;;6.15;1.30;;;21.00;84.40;;;20.26;58.23;97029.00;4999332;28;20437;-75
2022/09/09 10:33:48;;;;;;;6.60;1.40;;;20.90;81.70;;;20.13;59.44;97035.38;4994483;28;20436;-75